Time;durP1;ratioP1;P1;durP2;ratioP2;P2;SDS_P1;SDS_P2;PMS_P1;PMS_P2;Temp;Humidity;BMP_temperature;BMP_pressure;BME280_temperature;BME280_humidity;BME280_pressure;Samples;Min_cycle;Max_cycle;Signal;HPM_P1;HPM_P2
2024/02/10 00:01:46;;;;;;;;;6.00;4.00;;;;;;;;4979073;28;45307;-72
2024/02/10 00:04:14;;;;;;;;;16.50;15.50;;;;;;;;4961073;28;45515;-72
2024/02/10 00:06:40;;;;;;;;;15.75;14.50;;;;;;;;4946907;28;46834;-72
2024/02/10 00:09:08;;;;;;;;;14.25;12.50;;;;;;;;4925574;28;45906;-72
2024/02/10 00:11:34;;;;;;;;;6.50;6.00;;;;;;;;4941300;28;45425;-72
2024/02/10 00:13:59;;;;;;;;;0.00;0.00;;;;;;;;4962640;28;45436;-72
2024/02/10 00:16:28;;;;;;;;;3.00;3.00;;;;;;;;4944789;28;47255;-72
2024/02/10 00:18:53;;;;;;;;;4.50;3.00;;;;;;;;4962329;28;45410;-72
2024/02/10 00:21:20;;;;;;;;;3.75;3.75;;;;;;;;4962377;28;45557;-72
2024/02/10 00:23:47;;;;;;;;;2.75;2.75;;;;;;;;4944727;28;45356;-72
2024/02/10 00:26:15;;;;;;;;;2.00;2.00;;;;;;;;4961771;28;45378;-72
2024/02/10 00:28:40;;;;;;;;;2.75;2.75;;;;;;;;4957244;28;45451;-72
2024/02/10 00:31:05;;;;;;;;;3.00;2.00;;;;;;;;4967314;28;45365;-72
2024/02/10 00:33:30;;;;;;;;;4.00;4.00;;;;;;;;4975945;28;45394;-72
2024/02/10 00:35:55;;;;;;;;;6.00;6.00;;;;;;;;4967180;28;45862;-72
2024/02/10 00:38:21;;;;;;;;;13.33;13.00;;;;;;;;4944839;28;45906;-72
2024/02/10 00:40:47;;;;;;;;;18.25;17.00;;;;;;;;4961789;28;45325;-72
2024/02/10 00:43:12;;;;;;;;;6.50;5.75;;;;;;;;4944668;28;45608;-72
2024/02/10 00:45:38;;;;;;;;;6.00;3.00;;;;;;;;4961938;28;45598;-72
2024/02/10 00:48:03;;;;;;;;;6.00;4.50;;;;;;;;4961948;28;45395;-72
2024/02/10 00:50:29;;;;;;;;;4.00;3.00;;;;;;;;4944528;28;45616;-72
2024/02/10 00:52:55;;;;;;;;;4.00;4.00;;;;;;;;4943829;28;45372;-72
2024/02/10 00:55:29;;;;;;;;;3.67;3.67;;;;;;;;4961633;28;45464;-72
2024/02/10 00:57:54;;;;;;;;;5.00;5.00;;;;;;;;4961670;28;45755;-72
2024/02/10 01:00:21;;;;;;;;;4.67;4.00;;;;;;;;4961945;28;45295;-72
2024/02/10 01:02:47;;;;;;;;;4.25;4.25;;;;;;;;4962004;28;45323;-72
2024/02/10 01:05:12;;;;;;;;;5.00;5.00;;;;;;;;4974724;28;45409;-72
2024/02/10 01:07:38;;;;;;;;;14.75;12.50;;;;;;;;4961719;28;45303;-72
2024/02/10 01:10:06;;;;;;;;;25.00;22.00;;;;;;;;4961483;28;45313;-72
2024/02/10 01:12:31;;;;;;;;;24.50;22.50;;;;;;;;4961180;28;45467;-72
2024/02/10 01:14:57;;;;;;;;;7.00;7.00;;;;;;;;4961597;28;45385;-72
2024/02/10 01:17:24;;;;;;;;;3.75;3.50;;;;;;;;4961251;28;45404;-72
2024/02/10 01:19:50;;;;;;;;;4.75;4.00;;;;;;;;4961715;28;45498;-72
2024/02/10 01:22:29;;;;;;;;;5.50;5.00;;;;;;;;4961598;28;45608;-72
2024/02/10 01:24:58;;;;;;;;;6.00;5.50;;;;;;;;4960480;28;45592;-72
2024/02/10 01:27:27;;;;;;;;;6.25;6.00;;;;;;;;4963324;28;45508;-72
2024/02/10 01:29:53;;;;;;;;;5.00;5.00;;;;;;;;4958301;28;45365;-72
2024/02/10 01:32:19;;;;;;;;;5.25;5.00;;;;;;;;4965500;28;45573;-72
2024/02/10 01:34:45;;;;;;;;;5.00;4.00;;;;;;;;4975651;28;46773;-72
2024/02/10 01:37:12;;;;;;;;;6.00;6.00;;;;;;;;4961186;28;45517;-72
2024/02/10 01:39:38;;;;;;;;;7.00;7.00;;;;;;;;4961200;28;45425;-72
2024/02/10 01:42:03;;;;;;;;;19.67;17.00;;;;;;;;4943487;28;45610;-72
2024/02/10 01:44:29;;;;;;;;;13.00;13.00;;;;;;;;4960971;28;47351;-72
2024/02/10 01:46:59;;;;;;;;;4.75;4.75;;;;;;;;4961226;28;45490;-72
2024/02/10 01:49:24;;;;;;;;;5.25;5.25;;;;;;;;4960989;28;45645;-72
2024/02/10 01:51:50;;;;;;;;;5.33;5.33;;;;;;;;4961143;28;45397;-72
2024/02/10 01:54:15;;;;;;;;;7.50;6.75;;;;;;;;4960701;28;46087;-72
2024/02/10 01:56:41;;;;;;;;;7.00;7.00;;;;;;;;4960572;28;45669;-72
2024/02/10 01:59:07;;;;;;;;;9.00;6.25;;;;;;;;4960914;28;45446;-72
2024/02/10 02:01:34;;;;;;;;;7.00;5.50;;;;;;;;4960828;28;45481;-72
2024/02/10 02:04:00;;;;;;;;;7.25;6.00;;;;;;;;4966043;28;45468;-72
2024/02/10 02:06:30;;;;;;;;;7.00;6.00;;;;;;;;4968523;28;45391;-72
2024/02/10 02:08:55;;;;;;;;;10.00;7.25;;;;;;;;4960667;28;45530;-72
2024/02/10 02:11:21;;;;;;;;;7.33;7.00;;;;;;;;4943078;28;45577;-72
2024/02/10 02:13:49;;;;;;;;;17.25;13.50;;;;;;;;4960333;28;45835;-72
2024/02/10 02:16:15;;;;;;;;;14.25;14.25;;;;;;;;4942388;28;45354;-72
2024/02/10 02:18:43;;;;;;;;;15.00;15.00;;;;;;;;4943321;28;45404;-72
2024/02/10 02:21:08;;;;;;;;;16.25;13.00;;;;;;;;4960495;28;45500;-72
2024/02/10 02:23:34;;;;;;;;;10.67;7.67;;;;;;;;4960522;28;45414;-72
2024/02/10 02:25:59;;;;;;;;;5.00;5.00;;;;;;;;4960065;28;45451;-72
2024/02/10 02:28:25;;;;;;;;;6.33;5.33;;;;;;;;4971080;28;45461;-72
2024/02/10 02:30:50;;;;;;;;;7.00;7.00;;;;;;;;4967426;28;45394;-72
2024/02/10 02:33:15;;;;;;;;;1.00;1.00;;;;;;;;4972152;28;46028;-72
2024/02/10 02:35:43;;;;;;;;;6.00;6.00;;;;;;;;4966821;28;45379;-72
2024/02/10 02:38:08;;;;;;;;;6.00;6.00;;;;;;;;4960316;28;45416;-72
2024/02/10 02:40:34;;;;;;;;;7.75;7.25;;;;;;;;4960217;28;45361;-72
2024/02/10 02:43:02;;;;;;;;;8.33;7.00;;;;;;;;4942522;28;48456;-72
2024/02/10 02:45:28;;;;;;;;;4.50;4.50;;;;;;;;4960345;28;45374;-72
2024/02/10 02:47:56;;;;;;;;;6.25;6.25;;;;;;;;4960199;28;45573;-72
2024/02/10 02:50:24;;;;;;;;;5.25;5.25;;;;;;;;4960206;28;45476;-72
2024/02/10 02:52:49;;;;;;;;;7.75;5.75;;;;;;;;4979648;28;45558;-72
2024/02/10 02:55:15;;;;;;;;;5.67;5.67;;;;;;;;4979404;28;45573;-72
2024/02/10 02:57:40;;;;;;;;;6.00;5.00;;;;;;;;4961504;28;45419;-72
2024/02/10 03:00:05;;;;;;;;;6.75;6.00;;;;;;;;4979573;28;45283;-72
2024/02/10 03:02:32;;;;;;;;;6.00;5.00;;;;;;;;4979403;28;46265;-72
2024/02/10 03:04:57;;;;;;;;;5.25;4.75;;;;;;;;4979370;28;45325;-72
2024/02/10 03:07:23;;;;;;;;;7.00;5.00;;;;;;;;4960248;28;45452;-72
2024/02/10 03:09:48;;;;;;;;;6.00;5.00;;;;;;;;4959924;28;45544;-72
2024/02/10 03:12:14;;;;;;;;;9.00;6.50;;;;;;;;4959340;28;46093;-72
2024/02/10 03:14:39;;;;;;;;;6.25;5.00;;;;;;;;4959832;28;45373;-72
2024/02/10 03:17:07;;;;;;;;;6.50;6.00;;;;;;;;4960057;28;45211;-72
2024/02/10 03:19:33;;;;;;;;;1.75;1.75;;;;;;;;4959768;28;45329;-72
2024/02/10 03:22:00;;;;;;;;;4.00;4.00;;;;;;;;4959968;28;46050;-72
2024/02/10 03:24:28;;;;;;;;;4.75;4.75;;;;;;;;4959734;28;45254;-72
2024/02/10 03:26:53;;;;;;;;;6.00;5.50;;;;;;;;4942295;28;45526;-72
2024/02/10 03:29:19;;;;;;;;;10.67;7.00;;;;;;;;4977121;28;45285;-72
2024/02/10 03:31:44;;;;;;;;;8.50;7.00;;;;;;;;4959557;28;46300;-72
2024/02/10 03:34:10;;;;;;;;;6.25;6.00;;;;;;;;4978554;28;45349;-72
2024/02/10 03:36:35;;;;;;;;;6.67;6.67;;;;;;;;4959868;28;45456;-72
2024/02/10 03:39:00;;;;;;;;;6.00;5.33;;;;;;;;4959684;28;45365;-72
2024/02/10 03:41:26;;;;;;;;;6.75;6.00;;;;;;;;4959239;28;45322;-72
2024/02/10 03:43:51;;;;;;;;;6.25;6.00;;;;;;;;4941947;28;45446;-72
2024/02/10 03:46:21;;;;;;;;;6.33;5.67;;;;;;;;4941548;28;45688;-72
2024/02/10 03:48:46;;;;;;;;;5.25;5.25;;;;;;;;4962863;28;45441;-72
2024/02/10 03:51:12;;;;;;;;;5.33;5.33;;;;;;;;4962897;28;46551;-72
2024/02/10 03:53:38;;;;;;;;;6.50;6.50;;;;;;;;4945186;28;45351;-72
2024/02/10 03:56:04;;;;;;;;;7.50;7.50;;;;;;;;4962598;28;45440;-72
2024/02/10 03:58:29;;;;;;;;;9.00;7.00;;;;;;;;4962547;28;45410;-72
2024/02/10 04:00:55;;;;;;;;;6.00;5.75;;;;;;;;4962723;28;45389;-72
2024/02/10 04:03:21;;;;;;;;;6.00;6.00;;;;;;;;4962660;28;45400;-72
2024/02/10 04:05:46;;;;;;;;;5.75;5.00;;;;;;;;4975690;28;45421;-72
2024/02/10 04:08:11;;;;;;;;;7.50;7.50;;;;;;;;4945113;28;45533;-72
2024/02/10 04:10:37;;;;;;;;;7.00;5.33;;;;;;;;4962290;28;47582;-72
2024/02/10 04:13:02;;;;;;;;;8.67;7.00;;;;;;;;4944895;28;45945;-72
2024/02/10 04:15:27;;;;;;;;;9.75;9.50;;;;;;;;4982347;28;45564;-72
2024/02/10 04:17:53;;;;;;;;;6.00;6.00;;;;;;;;4981920;28;45638;-72
2024/02/10 04:20:20;;;;;;;;;5.00;5.00;;;;;;;;4981943;28;46094;-72
2024/02/10 04:22:45;;;;;;;;;7.50;7.00;;;;;;;;4981901;28;45265;-72
2024/02/10 04:25:12;;;;;;;;;6.25;6.00;;;;;;;;4964045;28;45355;-72
2024/02/10 04:27:37;;;;;;;;;5.75;5.75;;;;;;;;4977539;28;45648;-72
2024/02/10 04:30:06;;;;;;;;;8.25;7.00;;;;;;;;4962210;28;45996;-72
2024/02/10 04:32:31;;;;;;;;;13.00;10.75;;;;;;;;4968009;28;45410;-72
2024/02/10 04:34:56;;;;;;;;;6.25;6.25;;;;;;;;4957895;28;45383;-72
2024/02/10 04:37:22;;;;;;;;;13.00;7.00;;;;;;;;4962111;28;45362;-72
2024/02/10 04:39:47;;;;;;;;;9.00;7.25;;;;;;;;4944541;28;48274;-72
2024/02/10 04:42:12;;;;;;;;;6.67;5.00;;;;;;;;4961903;28;45544;-72
2024/02/10 04:44:38;;;;;;;;;7.00;6.67;;;;;;;;4944727;28;45514;-72
2024/02/10 04:47:03;;;;;;;;;9.00;9.00;;;;;;;;4961923;28;45542;-72
2024/02/10 04:49:28;;;;;;;;;10.33;9.67;;;;;;;;4962054;28;46183;-72
2024/02/10 04:51:54;;;;;;;;;9.67;6.00;;;;;;;;4961746;28;45428;-72
2024/02/10 04:54:19;;;;;;;;;5.33;5.00;;;;;;;;4961949;28;45436;-72
2024/02/10 04:56:44;;;;;;;;;7.00;6.67;;;;;;;;4944194;28;45705;-72
2024/02/10 04:59:17;;;;;;;;;9.00;9.00;;;;;;;;4960599;28;45360;-72
2024/02/10 05:01:43;;;;;;;;;8.00;8.00;;;;;;;;4961638;28;45314;-72
2024/02/10 05:04:11;;;;;;;;;6.75;6.75;;;;;;;;4968335;28;45366;-72
2024/02/10 05:06:37;;;;;;;;;6.50;6.50;;;;;;;;4967965;28;45334;-72
2024/02/10 05:09:02;;;;;;;;;9.00;5.25;;;;;;;;4961608;28;45306;-72
2024/02/10 05:11:28;;;;;;;;;6.75;6.00;;;;;;;;4961477;28;45310;-72
2024/02/10 05:13:54;;;;;;;;;8.75;8.75;;;;;;;;4974132;28;45443;-72
2024/02/10 05:16:21;;;;;;;;;8.33;6.33;;;;;;;;4981040;28;45647;-72
2024/02/10 05:18:46;;;;;;;;;8.75;7.00;;;;;;;;4963446;28;47187;-72
2024/02/10 05:21:16;;;;;;;;;7.00;7.00;;;;;;;;4981072;28;45334;-72
2024/02/10 05:23:45;;;;;;;;;8.25;6.50;;;;;;;;4981066;28;45385;-72
2024/02/10 05:26:10;;;;;;;;;9.00;9.00;;;;;;;;4962905;28;45687;-72
2024/02/10 05:28:35;;;;;;;;;11.00;10.33;;;;;;;;4968929;28;46146;-72
2024/02/10 05:31:04;;;;;;;;;11.00;10.00;;;;;;;;4961320;28;45522;-72
2024/02/10 05:33:29;;;;;;;;;9.00;7.00;;;;;;;;4975284;28;45439;-72
2024/02/10 05:35:54;;;;;;;;;11.00;9.00;;;;;;;;4966534;28;45586;-72
2024/02/10 05:38:21;;;;;;;;;9.00;9.00;;;;;;;;4943692;28;47089;-72
2024/02/10 05:40:47;;;;;;;;;7.00;7.00;;;;;;;;4960826;28;45334;-72
2024/02/10 05:43:14;;;;;;;;;11.50;9.75;;;;;;;;4961429;28;45784;-72
2024/02/10 05:45:39;;;;;;;;;8.00;8.00;;;;;;;;4960984;28;45607;-72
2024/02/10 05:48:04;;;;;;;;;10.50;10.50;;;;;;;;4961051;28;45940;-72
2024/02/10 05:50:32;;;;;;;;;44.50;37.50;;;;;;;;4960910;28;45344;-72
2024/02/10 05:52:57;;;;;;;;;23.00;21.50;;;;;;;;4961073;28;45408;-72
2024/02/10 05:55:26;;;;;;;;;11.25;11.25;;;;;;;;4943334;28;45424;-72
2024/02/10 05:57:55;;;;;;;;;11.25;9.75;;;;;;;;4943237;28;47145;-72
2024/02/10 06:00:21;;;;;;;;;7.25;7.25;;;;;;;;4943459;28;45834;-72
2024/02/10 06:02:47;;;;;;;;;9.75;9.75;;;;;;;;4943547;28;45395;-72
2024/02/10 06:05:13;;;;;;;;;6.75;6.00;;;;;;;;4973952;28;45742;-72
2024/02/10 06:07:39;;;;;;;;;9.50;7.75;;;;;;;;4960745;28;45488;-72
2024/02/10 06:10:09;;;;;;;;;13.50;12.00;;;;;;;;4960093;28;45461;-72
2024/02/10 06:12:35;;;;;;;;;11.25;10.00;;;;;;;;4960728;28;45362;-72
2024/02/10 06:15:00;;;;;;;;;9.25;9.25;;;;;;;;4960675;28;46548;-72
2024/02/10 06:17:25;;;;;;;;;12.33;10.33;;;;;;;;4960556;28;46086;-72
2024/02/10 06:19:50;;;;;;;;;5.67;5.67;;;;;;;;4960505;28;45585;-72
2024/02/10 06:22:18;;;;;;;;;9.00;7.67;;;;;;;;4943398;28;45441;-72
2024/02/10 06:24:44;;;;;;;;;11.75;11.75;;;;;;;;4960350;28;45410;-72
2024/02/10 06:27:09;;;;;;;;;7.00;7.00;;;;;;;;4960399;28;46447;-72
2024/02/10 06:29:34;;;;;;;;;11.00;10.67;;;;;;;;4959966;28;45934;-72
2024/02/10 06:32:01;;;;;;;;;9.75;8.25;;;;;;;;4962317;28;45323;-72
2024/02/10 06:34:27;;;;;;;;;10.25;10.25;;;;;;;;4977459;28;45320;-72
2024/02/10 06:36:54;;;;;;;;;6.50;5.25;;;;;;;;4942839;28;48588;-72
2024/02/10 06:39:19;;;;;;;;;8.00;8.00;;;;;;;;4960239;28;45617;-72
2024/02/10 06:41:45;;;;;;;;;8.25;8.25;;;;;;;;4960300;28;45322;-72
2024/02/10 06:44:11;;;;;;;;;7.75;7.75;;;;;;;;4959988;28;45542;-72
2024/02/10 06:46:36;;;;;;;;;8.75;5.50;;;;;;;;4960216;28;46545;-72
2024/02/10 06:49:02;;;;;;;;;11.50;10.00;;;;;;;;4960092;28;45508;-72
2024/02/10 06:51:28;;;;;;;;;11.67;10.67;;;;;;;;4942857;28;45390;-72
2024/02/10 06:53:57;;;;;;;;;11.75;10.75;;;;;;;;4942586;28;45941;-72
2024/02/10 06:56:22;;;;;;;;;10.50;10.25;;;;;;;;4942245;28;47596;-72
2024/02/10 06:58:49;;;;;;;;;13.67;9.67;;;;;;;;4942081;28;45422;-72
2024/02/10 07:01:17;;;;;;;;;9.50;9.50;;;;;;;;4942758;28;45345;-72
2024/02/10 07:03:45;;;;;;;;;10.25;10.25;;;;;;;;4962982;28;45477;-71
2024/02/10 07:06:11;;;;;;;;;10.00;9.50;;;;;;;;4969403;28;46829;-72
2024/02/10 07:08:40;;;;;;;;;5.50;4.75;;;;;;;;4959706;28;45324;-72
2024/02/10 07:11:05;;;;;;;;;13.75;8.75;;;;;;;;4959719;28;45341;-72
2024/02/10 07:13:31;;;;;;;;;8.25;8.25;;;;;;;;4942268;28;45536;-72
2024/02/10 07:15:56;;;;;;;;;9.50;8.25;;;;;;;;4959712;28;45487;-72
2024/02/10 07:18:21;;;;;;;;;10.00;9.00;;;;;;;;4959667;28;45393;-72
2024/02/10 07:20:47;;;;;;;;;4.00;4.00;;;;;;;;4959943;28;45353;-72
2024/02/10 07:23:12;;;;;;;;;13.33;8.33;;;;;;;;4962336;28;45305;-72
2024/02/10 07:25:44;;;;;;;;;10.67;10.00;;;;;;;;4944961;28;47209;-72
2024/02/10 07:28:11;;;;;;;;;7.25;7.00;;;;;;;;4971412;28;45426;-72
2024/02/10 07:30:37;;;;;;;;;12.75;11.25;;;;;;;;4965273;28;45410;-72
2024/02/10 07:33:12;;;;;;;;;12.50;11.00;;;;;;;;4957872;28;45515;-72
2024/02/10 07:35:37;;;;;;;;;6.25;6.00;;;;;;;;4953103;28;46487;-72
2024/02/10 07:38:03;;;;;;;;;12.25;10.75;;;;;;;;4962915;28;45581;-72
2024/02/10 07:40:28;;;;;;;;;9.75;9.00;;;;;;;;4945570;28;45729;-72
2024/02/10 07:42:53;;;;;;;;;11.50;10.00;;;;;;;;4945280;28;45522;-72
2024/02/10 07:45:19;;;;;;;;;11.67;11.00;;;;;;;;4945525;28;48327;-72
2024/02/10 07:47:46;;;;;;;;;10.50;9.50;;;;;;;;4962725;28;45582;-72
2024/02/10 07:50:12;;;;;;;;;16.50;10.25;;;;;;;;4962961;28;45424;-72
2024/02/10 07:52:38;;;;;;;;;12.00;10.67;;;;;;;;4945165;28;45332;-72
2024/02/10 07:55:03;;;;;;;;;10.00;10.00;;;;;;;;4945076;28;48022;-72
2024/02/10 07:57:29;;;;;;;;;10.25;9.50;;;;;;;;4944821;28;45419;-72
2024/02/10 07:59:55;;;;;;;;;13.00;11.00;;;;;;;;4962898;28;45464;-72
2024/02/10 08:02:23;;;;;;;;;11.75;10.00;;;;;;;;4962642;28;45470;-72
2024/02/10 08:04:51;;;;;;;;;13.25;12.25;;;;;;;;4974552;28;45501;-72
2024/02/10 08:07:29;;;;;;;;;12.00;11.00;;;;;;;;4946303;28;45517;-72
2024/02/10 08:09:55;;;;;;;;;10.00;10.00;;;;;;;;4944754;28;45284;-72
2024/02/10 08:12:23;;;;;;;;;10.75;10.25;;;;;;;;4962439;28;45618;-72
2024/02/10 08:14:50;;;;;;;;;10.25;8.50;;;;;;;;4962383;28;46154;-72
2024/02/10 08:17:15;;;;;;;;;12.25;11.75;;;;;;;;4962502;28;45385;-72
2024/02/10 08:19:42;;;;;;;;;13.00;10.00;;;;;;;;4962521;28;45533;-72
2024/02/10 08:22:09;;;;;;;;;12.75;10.75;;;;;;;;4962396;28;45375;-72
2024/02/10 08:24:34;;;;;;;;;11.75;10.75;;;;;;;;4962012;28;45336;-72
2024/02/10 08:27:00;;;;;;;;;9.75;9.00;;;;;;;;4962102;28;45261;-72
2024/02/10 08:29:33;;;;;;;;;10.00;7.25;;;;;;;;4979748;28;45266;-72
2024/02/10 08:32:02;;;;;;;;;11.25;10.00;;;;;;;;4963958;28;45460;-72
2024/02/10 08:34:31;;;;;;;;;8.75;7.75;;;;;;;;4961310;28;48190;-72
2024/02/10 08:36:57;;;;;;;;;7.50;6.50;;;;;;;;4962130;28;45570;-72
2024/02/10 08:39:22;;;;;;;;;12.75;12.75;;;;;;;;4944608;28;45597;-72
2024/02/10 08:41:47;;;;;;;;;10.00;8.00;;;;;;;;4961922;28;45263;-72
2024/02/10 08:44:14;;;;;;;;;12.00;11.00;;;;;;;;4943981;28;47001;-72
2024/02/10 08:46:42;;;;;;;;;12.50;10.75;;;;;;;;4944491;28;45448;-72
2024/02/10 08:49:11;;;;;;;;;10.50;10.50;;;;;;;;4944630;28;45596;-73
2024/02/10 08:51:36;;;;;;;;;12.25;11.00;;;;;;;;4962070;28;45496;-72
2024/02/10 08:54:03;;;;;;;;;13.50;11.25;;;;;;;;4944147;28;46173;-72
2024/02/10 08:56:33;;;;;;;;;14.50;11.50;;;;;;;;4944008;28;45624;-73
2024/02/10 08:58:58;;;;;;;;;11.50;11.00;;;;;;;;4944311;28;45481;-73
2024/02/10 09:01:25;;;;;;;;;14.75;13.75;;;;;;;;4961806;28;45555;-72
2024/02/10 09:03:53;;;;;;;;;14.00;11.00;;;;;;;;4965665;28;46473;-72
2024/02/10 09:06:21;;;;;;;;;18.25;13.50;;;;;;;;4952773;28;46247;-73
2024/02/10 09:08:49;;;;;;;;;11.75;11.75;;;;;;;;4961602;28;45447;-72
2024/02/10 09:11:16;;;;;;;;;12.25;11.75;;;;;;;;4961393;28;45542;-72
2024/02/10 09:13:44;;;;;;;;;14.50;12.50;;;;;;;;4943749;28;47613;-72
2024/02/10 09:16:10;;;;;;;;;17.25;14.00;;;;;;;;4944024;28;45397;-72
2024/02/10 09:18:35;;;;;;;;;12.25;12.25;;;;;;;;4944075;28;45679;-73
2024/02/10 09:21:02;;;;;;;;;9.67;7.67;;;;;;;;4943975;28;45632;-73
2024/02/10 09:23:29;;;;;;;;;10.00;9.50;;;;;;;;4961242;28;46226;-72
2024/02/10 09:25:54;;;;;;;;;9.75;9.25;;;;;;;;4943649;28;45525;-73
2024/02/10 09:28:20;;;;;;;;;8.33;7.00;;;;;;;;4971140;28;45400;-73
2024/02/10 09:30:46;;;;;;;;;13.67;10.67;;;;;;;;4951171;28;45596;-72
2024/02/10 09:33:19;;;;;;;;;9.75;9.50;;;;;;;;4972355;28;46299;-72
2024/02/10 09:35:45;;;;;;;;;12.25;12.00;;;;;;;;4949784;28;45771;-72
2024/02/10 09:38:12;;;;;;;;;12.25;11.00;;;;;;;;4943810;28;45352;-72
2024/02/10 09:40:39;;;;;;;;;15.00;13.00;;;;;;;;4960861;28;45250;-72
2024/02/10 09:43:07;;;;;;;;;19.75;14.00;;;;;;;;4961099;28;45408;-72
2024/02/10 09:45:34;;;;;;;;;12.00;10.50;;;;;;;;4960371;28;45471;-72
2024/02/10 09:47:59;;;;;;;;;13.75;11.00;;;;;;;;4943737;28;45666;-72
2024/02/10 09:50:24;;;;;;;;;12.75;11.00;;;;;;;;4943411;28;45544;-73
2024/02/10 09:52:49;;;;;;;;;10.50;10.00;;;;;;;;4960844;28;45590;-72
2024/02/10 09:55:15;;;;;;;;;12.00;12.00;;;;;;;;4960763;28;45448;-72
2024/02/10 09:57:46;;;;;;;;;14.50;13.00;;;;;;;;4943009;28;45344;-72
2024/02/10 10:00:12;;;;;;;;;11.75;10.50;;;;;;;;4960751;28;45317;-73
2024/02/10 10:02:38;;;;;;;;;8.50;8.50;;;;;;;;4943350;28;48494;-73
2024/02/10 10:05:05;;;;;;;;;12.25;12.25;;;;;;;;4973588;28;45404;-72
2024/02/10 10:07:31;;;;;;;;;10.75;10.75;;;;;;;;4961013;28;45401;-72
2024/02/10 10:09:57;;;;;;;;;10.75;9.25;;;;;;;;4960251;28;45354;-72
2024/02/10 10:12:42;;;;;;;;;9.00;8.50;;;;;;;;5096049;27;45317;-74
2024/02/10 10:15:08;;;;;;;;;11.00;8.67;;;;;;;;5095085;27;45459;-74
2024/02/10 10:17:36;;;;;;;;;10.00;10.00;;;;;;;;5096474;27;45333;-74
2024/02/10 10:20:04;;;;;;;;;12.75;10.25;;;;;;;;5096347;27;45480;-74
2024/02/10 10:22:33;;;;;;;;;11.25;10.50;;;;;;;;5096534;27;45498;-74
2024/02/10 10:24:58;;;;;;;;;12.25;8.50;;;;;;;;5094292;27;45886;-74
2024/02/10 10:27:23;;;;;;;;;11.75;10.50;;;;;;;;5094063;27;45422;-74
2024/02/10 10:29:49;;;;;;;;;12.00;12.00;;;;;;;;5074350;28;46004;-74
2024/02/10 10:32:18;;;;;;;;;7.75;7.00;;;;;;;;5075720;28;45540;-74
2024/02/10 10:34:45;;;;;;;;;12.25;9.75;;;;;;;;5075597;28;45541;-72
2024/02/10 10:37:12;;;;;;;;;13.00;11.50;;;;;;;;5075853;27;45430;-72
2024/02/10 10:39:40;;;;;;;;;10.25;9.25;;;;;;;;5075702;27;45354;-72
2024/02/10 10:42:07;;;;;;;;;14.75;12.00;;;;;;;;5075282;28;46374;-72
2024/02/10 10:44:34;;;;;;;;;13.50;13.50;;;;;;;;5075655;27;45611;-72
2024/02/10 10:47:00;;;;;;;;;15.75;13.75;;;;;;;;5075832;28;45392;-72
2024/02/10 10:49:25;;;;;;;;;13.75;12.25;;;;;;;;5075439;28;45584;-72
2024/02/10 10:51:50;;;;;;;;;13.00;11.67;;;;;;;;5075427;28;45389;-72
2024/02/10 10:54:17;;;;;;;;;14.50;11.50;;;;;;;;5075527;28;45254;-72
2024/02/10 10:56:43;;;;;;;;;13.75;12.25;;;;;;;;5075419;28;45319;-72
2024/02/10 10:59:09;;;;;;;;;15.00;14.75;;;;;;;;5075291;28;45240;-72
2024/02/10 11:01:38;;;;;;;;;14.00;13.50;;;;;;;;5075421;27;45455;-72
2024/02/10 11:04:03;;;;;;;;;18.00;16.00;;;;;;;;5075190;27;45593;-72
2024/02/10 11:06:28;;;;;;;;;18.00;15.75;;;;;;;;5075413;28;45483;-72
2024/02/10 11:08:54;;;;;;;;;14.67;13.00;;;;;;;;5075249;28;45586;-72
2024/02/10 11:11:19;;;;;;;;;17.00;14.25;;;;;;;;5083872;27;45936;-72
2024/02/10 11:13:44;;;;;;;;;22.67;17.67;;;;;;;;5094279;27;45459;-72
2024/02/10 11:16:12;;;;;;;;;14.67;14.00;;;;;;;;5095693;27;45521;-72
2024/02/10 11:18:37;;;;;;;;;17.75;16.25;;;;;;;;5094263;27;45528;-72
2024/02/10 11:21:08;;;;;;;;;14.25;14.25;;;;;;;;5095475;27;45304;-72
2024/02/10 11:23:34;;;;;;;;;16.00;16.00;;;;;;;;5082917;27;45358;-72
2024/02/10 11:25:59;;;;;;;;;19.33;16.00;;;;;;;;5081599;28;45500;-72
2024/02/10 11:28:26;;;;;;;;;15.33;13.00;;;;;;;;5081596;28;45496;-72
2024/02/10 11:30:51;;;;;;;;;17.25;14.75;;;;;;;;5080054;28;48289;-72
2024/02/10 11:33:19;;;;;;;;;18.00;16.33;;;;;;;;5081640;28;45260;-71
2024/02/10 11:35:46;;;;;;;;;19.50;18.25;;;;;;;;5081589;28;45353;-71
2024/02/10 11:38:12;;;;;;;;;17.00;15.25;;;;;;;;5081649;28;45344;-71
2024/02/10 11:40:37;;;;;;;;;17.00;14.50;;;;;;;;5081034;28;46688;-71
2024/02/10 11:43:02;;;;;;;;;13.25;12.00;;;;;;;;5081866;28;45392;-71
2024/02/10 11:45:27;;;;;;;;;22.00;21.00;;;;;;;;5081485;28;45393;-71
2024/02/10 11:47:56;;;;;;;;;14.75;14.75;;;;;;;;5081280;28;45571;-71
2024/02/10 11:50:21;;;;;;;;;14.25;13.75;;;;;;;;5081289;28;46100;-74
2024/02/10 11:52:46;;;;;;;;;17.00;16.67;;;;;;;;5081392;28;45273;-74
2024/02/10 11:55:12;;;;;;;;;13.50;13.00;;;;;;;;5081213;28;46417;-74
2024/02/10 11:57:37;;;;;;;;;15.00;15.00;;;;;;;;5081142;28;45313;-71
2024/02/10 12:00:04;;;;;;;;;13.25;13.25;;;;;;;;5081020;28;46120;-71
2024/02/10 12:02:32;;;;;;;;;14.50;14.25;;;;;;;;5081131;28;45585;-71
2024/02/10 12:04:57;;;;;;;;;14.75;12.50;;;;;;;;5080010;28;45635;-71
2024/02/10 12:07:26;;;;;;;;;13.33;12.67;;;;;;;;5081125;28;45383;-73
2024/02/10 12:09:51;;;;;;;;;12.50;12.50;;;;;;;;5080481;28;45329;-74
2024/02/10 12:12:16;;;;;;;;;6.33;5.00;;;;;;;;5080922;28;45298;-72
2024/02/10 12:14:41;;;;;;;;;12.00;12.00;;;;;;;;5081113;28;45358;-72
2024/02/10 12:17:06;;;;;;;;;16.00;15.00;;;;;;;;5080909;28;45480;-72
2024/02/10 12:19:39;;;;;;;;;11.33;10.33;;;;;;;;5081050;28;45645;-72
2024/02/10 12:22:08;;;;;;;;;13.00;12.00;;;;;;;;5079616;28;45463;-71
2024/02/10 12:24:33;;;;;;;;;7.75;6.75;;;;;;;;5079534;28;45394;-71
2024/02/10 12:26:58;;;;;;;;;6.00;5.00;;;;;;;;5080467;28;45555;-71
2024/02/10 12:29:23;;;;;;;;;12.67;11.67;;;;;;;;5080545;28;47222;-71
2024/02/10 12:31:50;;;;;;;;;7.00;7.00;;;;;;;;5079335;28;45433;-71
2024/02/10 12:34:17;;;;;;;;;6.00;5.75;;;;;;;;5079670;27;45272;-71
2024/02/10 12:36:42;;;;;;;;;5.75;5.25;;;;;;;;5079406;28;45410;-71
2024/02/10 12:39:09;;;;;;;;;6.50;6.50;;;;;;;;5079107;28;48308;-71
2024/02/10 12:41:35;;;;;;;;;10.75;9.50;;;;;;;;5080532;28;45653;-71
2024/02/10 12:44:01;;;;;;;;;7.25;7.00;;;;;;;;5080729;28;45311;-71
2024/02/10 12:46:27;;;;;;;;;12.00;8.75;;;;;;;;5079273;28;45286;-71
2024/02/10 12:48:53;;;;;;;;;9.00;8.25;;;;;;;;5079287;27;47707;-71
2024/02/10 12:51:18;;;;;;;;;8.33;8.33;;;;;;;;5079156;28;45310;-71
2024/02/10 12:53:43;;;;;;;;;9.75;9.75;;;;;;;;5080308;28;45240;-71
2024/02/10 12:56:10;;;;;;;;;7.00;7.00;;;;;;;;5080131;28;45493;-71
2024/02/10 12:58:35;;;;;;;;;7.00;7.00;;;;;;;;5080101;28;46526;-71
2024/02/10 13:01:00;;;;;;;;;11.00;10.67;;;;;;;;5079259;28;45621;-71
2024/02/10 13:03:26;;;;;;;;;9.00;9.00;;;;;;;;5080236;28;45481;-71
2024/02/10 13:05:51;;;;;;;;;10.33;8.00;;;;;;;;5080194;28;45485;-71
2024/02/10 13:08:17;;;;;;;;;7.33;7.33;;;;;;;;5080084;28;45602;-71
2024/02/10 13:10:45;;;;;;;;;11.00;11.00;;;;;;;;5079713;28;45707;-71
2024/02/10 13:13:10;;;;;;;;;7.00;7.00;;;;;;;;5080122;28;45352;-71
2024/02/10 13:15:42;;;;;;;;;12.00;11.33;;;;;;;;5078769;28;45524;-71
2024/02/10 13:18:08;;;;;;;;;11.25;9.00;;;;;;;;5078529;28;47321;-71
2024/02/10 13:20:33;;;;;;;;;11.75;10.75;;;;;;;;5080108;28;45408;-71
2024/02/10 13:22:58;;;;;;;;;11.00;8.00;;;;;;;;5078905;28;45461;-71
2024/02/10 13:25:24;;;;;;;;;4.75;4.75;;;;;;;;5078383;28;45412;-71
2024/02/10 13:27:52;;;;;;;;;11.00;9.25;;;;;;;;5079430;28;45514;-71
2024/02/10 13:30:22;;;;;;;;;11.50;10.00;;;;;;;;5080044;28;45310;-72
2024/02/10 13:32:47;;;;;;;;;7.75;5.50;;;;;;;;5079719;28;45487;-72
2024/02/10 13:35:15;;;;;;;;;12.00;12.00;;;;;;;;5080013;28;45358;-72
2024/02/10 14:12:50;;;;;;;;;17.00;14.75;;;;;;;;5079127;28;45627;-72
2024/02/10 14:15:27;;;;;;;;;13.00;13.00;;;;;;;;5077977;28;45398;-72
2024/02/10 14:17:57;;;;;;;;;14.00;14.00;;;;;;;;5079211;28;45400;-72
2024/02/10 14:20:25;;;;;;;;;13.75;13.25;;;;;;;;5079097;28;47041;-72
2024/02/10 14:22:54;;;;;;;;;17.00;17.00;;;;;;;;5079137;28;45653;-72
2024/02/10 14:25:32;;;;;;;;;19.75;18.25;;;;;;;;5079023;28;45401;-72
2024/02/10 14:27:58;;;;;;;;;17.25;15.25;;;;;;;;5078765;28;45663;-72
2024/02/10 14:30:31;;;;;;;;;17.25;17.00;;;;;;;;5077547;28;47446;-72
2024/02/10 14:32:57;;;;;;;;;17.75;17.75;;;;;;;;5077583;28;45560;-72
2024/02/10 14:35:34;;;;;;;;;18.00;16.25;;;;;;;;5079282;28;45247;-72
2024/02/10 14:38:13;;;;;;;;;17.50;16.75;;;;;;;;5077594;28;45379;-72
2024/02/10 14:40:38;;;;;;;;;17.75;17.75;;;;;;;;5078459;28;46194;-72
2024/02/10 14:43:06;;;;;;;;;22.67;18.33;;;;;;;;5078820;28;45508;-72
2024/02/10 14:45:31;;;;;;;;;18.50;18.00;;;;;;;;5078979;28;45317;-72
2024/02/10 14:47:57;;;;;;;;;22.33;21.00;;;;;;;;5078841;28;45537;-72
2024/02/10 14:50:24;;;;;;;;;22.25;20.25;;;;;;;;5078615;28;46000;-72
2024/02/10 14:52:49;;;;;;;;;18.75;18.00;;;;;;;;5078752;28;45413;-72
2024/02/10 14:55:14;;;;;;;;;15.67;15.67;;;;;;;;5078843;28;45487;-72
2024/02/10 14:57:39;;;;;;;;;23.67;21.67;;;;;;;;5079335;28;45438;-72
2024/02/10 15:00:05;;;;;;;;;19.25;17.75;;;;;;;;5082119;28;45289;-72
2024/02/10 15:02:30;;;;;;;;;18.00;16.25;;;;;;;;5082301;28;45498;-72